createdAt,value
2018-12-11T00:00:15.048Z,6.93
2018-12-11T00:02:43.474Z,9.83
2018-12-11T00:05:12.113Z,9.10
2018-12-11T00:07:40.538Z,8.70
2018-12-11T00:10:08.919Z,7.60
2018-12-11T00:12:37.299Z,6.37
2018-12-11T00:15:06.023Z,9.53
2018-12-11T00:17:34.390Z,7.90
2018-12-11T00:20:02.793Z,7.40
2018-12-11T00:22:31.187Z,6.23
2018-12-11T00:24:59.618Z,7.10
2018-12-11T00:27:27.965Z,7.90
2018-12-11T00:29:56.366Z,5.87
2018-12-11T00:32:24.736Z,10.33
2018-12-11T00:34:53.180Z,8.63
2018-12-11T00:37:21.579Z,9.13
2018-12-11T00:39:49.922Z,8.53
2018-12-11T00:42:18.479Z,5.57
2018-12-11T00:44:46.840Z,10.07
2018-12-11T00:47:15.380Z,5.83
2018-12-11T00:49:43.768Z,9.10
2018-12-11T00:52:12.153Z,9.30
2018-12-11T00:54:40.517Z,8.90
2018-12-11T00:57:08.885Z,6.97
2018-12-11T00:59:37.760Z,9.90
2018-12-11T01:02:06.453Z,5.93
2018-12-11T01:04:35.127Z,11.23
2018-12-11T01:07:03.623Z,11.60
2018-12-11T01:09:32.314Z,7.80
2018-12-11T01:12:00.698Z,9.83
2018-12-11T01:14:29.066Z,8.07
2018-12-11T01:16:57.442Z,8.87
2018-12-11T01:19:25.847Z,10.67
2018-12-11T01:21:54.121Z,6.37
2018-12-11T01:24:22.543Z,15.07
2018-12-11T01:26:50.964Z,9.50
2018-12-11T01:29:19.642Z,6.03
2018-12-11T01:31:47.981Z,7.43
2018-12-11T01:34:16.407Z,13.20
2018-12-11T01:36:44.769Z,11.00
2018-12-11T01:39:13.122Z,8.93
2018-12-11T01:41:41.466Z,7.87
2018-12-11T01:44:09.901Z,11.40
2018-12-11T01:46:38.430Z,9.57
2018-12-11T01:49:07.198Z,6.80
2018-12-11T01:51:35.620Z,9.73
2018-12-11T01:54:04.412Z,12.13
2018-12-11T01:56:34.408Z,10.57
2018-12-11T01:59:03.006Z,12.57
2018-12-11T02:01:31.434Z,9.27
2018-12-11T02:03:59.819Z,10.80
2018-12-11T02:06:30.963Z,9.00
2018-12-11T02:09:01.877Z,9.00
2018-12-11T02:11:30.983Z,8.80
2018-12-11T02:13:59.951Z,6.80
2018-12-11T02:16:28.721Z,13.43
2018-12-11T02:18:57.151Z,12.73
2018-12-11T02:21:25.584Z,14.10
2018-12-11T02:23:54.470Z,11.60
2018-12-11T02:26:23.048Z,11.80
2018-12-11T02:28:51.565Z,17.53
2018-12-11T02:31:20.273Z,7.30
2018-12-11T02:33:48.745Z,12.03
2018-12-11T02:36:17.173Z,8.43
2018-12-11T02:38:45.626Z,12.17
2018-12-11T02:41:13.996Z,10.73
2018-12-11T02:43:42.396Z,13.37
2018-12-11T02:46:10.872Z,14.10
2018-12-11T02:48:39.270Z,9.77
2018-12-11T02:51:07.916Z,14.17
2018-12-11T02:53:36.334Z,17.30
2018-12-11T02:56:05.459Z,13.70
2018-12-11T02:58:33.949Z,13.83
2018-12-11T03:01:02.342Z,12.60
2018-12-11T03:03:32.301Z,12.73
2018-12-11T03:06:03.528Z,16.27
2018-12-11T03:08:32.670Z,10.63
2018-12-11T03:11:01.190Z,11.10
2018-12-11T03:13:32.865Z,12.17
2018-12-11T03:16:03.061Z,11.80
2018-12-11T03:18:32.673Z,16.70
2018-12-11T03:21:01.273Z,9.83
2018-12-11T03:23:30.049Z,16.40
2018-12-11T03:25:58.425Z,9.20
2018-12-11T03:28:27.170Z,12.00
2018-12-11T03:30:56.427Z,19.67
2018-12-11T03:33:25.488Z,9.20
2018-12-11T03:35:54.809Z,10.63
2018-12-11T03:38:24.098Z,12.77
2018-12-11T03:40:52.657Z,12.53
2018-12-11T03:43:21.049Z,12.30
2018-12-11T03:45:49.434Z,12.83
2018-12-11T03:48:18.272Z,13.33
2018-12-11T03:50:47.019Z,10.00
2018-12-11T03:53:20.765Z,11.50
2018-12-11T03:55:54.708Z,9.47
2018-12-11T03:58:28.508Z,13.97
2018-12-11T04:01:02.289Z,15.87
2018-12-11T04:03:32.233Z,11.43
2018-12-11T04:06:01.017Z,11.20
2018-12-11T04:08:30.612Z,11.63
2018-12-11T04:11:03.391Z,10.43
2018-12-11T04:13:31.959Z,9.23
2018-12-11T04:16:01.048Z,11.90
2018-12-11T04:18:30.235Z,10.03
2018-12-11T04:20:59.473Z,12.20
2018-12-11T04:23:27.808Z,9.10
2018-12-11T04:25:56.228Z,11.00
2018-12-11T04:28:24.675Z,13.30
2018-12-11T04:30:53.100Z,9.93
2018-12-11T04:33:22.225Z,9.30
2018-12-11T04:35:50.857Z,9.10
2018-12-11T04:38:19.282Z,6.83
2018-12-11T04:40:47.748Z,9.80
2018-12-11T04:43:16.966Z,14.80
2018-12-11T04:45:45.637Z,13.87
2018-12-11T04:48:14.022Z,8.13
2018-12-11T04:50:42.937Z,11.90
2018-12-11T04:53:11.709Z,8.33
2018-12-11T04:55:40.407Z,19.27
2018-12-11T04:58:09.348Z,13.00
2018-12-11T05:00:37.788Z,9.60
2018-12-11T05:03:06.546Z,8.87
2018-12-11T05:05:34.914Z,9.63
2018-12-11T05:08:06.001Z,7.30
2018-12-11T05:10:35.490Z,9.63
2018-12-11T05:13:04.146Z,6.57
2018-12-11T05:15:32.674Z,10.00
2018-12-11T05:18:01.182Z,11.63
2018-12-11T05:20:30.763Z,10.97
2018-12-11T05:22:59.329Z,9.47
2018-12-11T05:25:27.760Z,9.67
2018-12-11T05:27:56.128Z,10.03
2018-12-11T05:30:24.501Z,7.03
2018-12-11T05:32:52.860Z,9.27
2018-12-11T05:35:21.288Z,6.50
2018-12-11T05:37:49.764Z,5.10
2018-12-11T05:40:18.397Z,7.87
2018-12-11T05:42:47.074Z,8.30
2018-12-11T05:45:15.461Z,8.87
2018-12-11T05:47:43.852Z,7.50
2018-12-11T05:50:12.403Z,8.40
2018-12-11T05:52:41.049Z,17.33
2018-12-11T05:55:09.780Z,14.03
2018-12-11T05:57:38.519Z,12.00
2018-12-11T06:00:09.291Z,12.20
2018-12-11T06:02:37.715Z,10.90
2018-12-11T06:05:07.859Z,10.73
2018-12-11T06:07:36.598Z,9.10
2018-12-11T06:10:05.867Z,10.67
2018-12-11T06:12:34.245Z,9.10
2018-12-11T06:15:02.810Z,9.47
2018-12-11T06:17:31.310Z,6.30
2018-12-11T06:19:59.860Z,5.93
2018-12-11T06:22:28.213Z,6.70
2018-12-11T06:24:56.646Z,11.53
2018-12-11T06:27:25.220Z,4.57
2018-12-11T06:29:53.785Z,6.60
2018-12-11T06:32:22.450Z,4.87
2018-12-11T06:34:51.007Z,4.70
2018-12-11T06:37:19.733Z,5.00
2018-12-11T06:39:48.265Z,3.63
2018-12-11T06:42:16.674Z,6.83
2018-12-11T06:44:45.081Z,4.13
2018-12-11T06:47:13.490Z,4.67
2018-12-11T06:49:41.874Z,4.40
2018-12-11T06:52:10.927Z,7.57
2018-12-11T06:54:39.374Z,3.73
2018-12-11T06:57:07.807Z,5.17
2018-12-11T06:59:36.235Z,4.60
2018-12-11T07:02:04.669Z,7.50
2018-12-11T07:04:33.690Z,8.37
2018-12-11T07:07:02.143Z,3.37
2018-12-11T07:09:30.779Z,5.23
2018-12-11T07:11:59.220Z,4.23
2018-12-11T07:14:27.904Z,7.53
2018-12-11T07:16:56.369Z,7.00
2018-12-11T07:19:24.717Z,3.20
2018-12-11T07:21:53.356Z,6.10
2018-12-11T07:24:21.817Z,5.27
2018-12-11T07:26:50.395Z,4.20
2018-12-11T07:29:18.839Z,12.27
2018-12-11T07:31:47.499Z,7.47
2018-12-11T07:34:16.972Z,9.50
2018-12-11T07:36:45.407Z,3.50
2018-12-11T07:39:13.824Z,4.77
2018-12-11T07:41:43.077Z,7.87
2018-12-11T07:44:11.631Z,10.03
2018-12-11T07:46:40.089Z,6.40
2018-12-11T07:49:08.518Z,5.67
2018-12-11T07:51:36.897Z,5.10
2018-12-11T07:54:05.301Z,8.27
2018-12-11T07:56:33.873Z,5.00
2018-12-11T07:59:02.536Z,5.03
2018-12-11T08:01:30.977Z,2.50
2018-12-11T08:03:59.369Z,3.43
2018-12-11T08:06:27.670Z,4.90
2018-12-11T08:08:56.067Z,2.30
2018-12-11T08:11:24.446Z,2.50
2018-12-11T08:13:53.013Z,5.17
2018-12-11T08:16:21.694Z,1.67
2018-12-11T08:18:50.622Z,2.90
2018-12-11T08:21:19.261Z,3.23
2018-12-11T08:23:47.727Z,1.63
2018-12-11T08:26:16.147Z,1.27
2018-12-11T08:28:44.704Z,1.43
2018-12-11T08:31:13.402Z,4.77
2018-12-11T08:33:41.788Z,2.50
2018-12-11T08:36:10.206Z,3.70
2018-12-11T08:38:38.846Z,2.63
2018-12-11T08:41:07.113Z,3.70
2018-12-11T08:43:35.525Z,4.27
2018-12-11T08:46:04.055Z,3.50
2018-12-11T08:48:32.754Z,6.10
2018-12-11T08:51:01.254Z,3.43
2018-12-11T08:53:29.679Z,2.40
2018-12-11T08:55:58.207Z,3.73
2018-12-11T08:58:26.689Z,4.70
2018-12-11T09:00:55.284Z,3.63
2018-12-11T09:03:23.991Z,8.33
2018-12-11T09:05:52.443Z,2.27
2018-12-11T09:08:20.834Z,3.83
2018-12-11T09:10:49.257Z,3.50
2018-12-11T09:13:17.583Z,5.23
2018-12-11T09:15:46.641Z,3.80
2018-12-11T09:18:15.114Z,4.23
2018-12-11T09:20:43.701Z,4.80
2018-12-11T09:23:12.085Z,3.43
2018-12-11T09:25:40.456Z,4.47
2018-12-11T09:28:11.147Z,5.43
2018-12-11T09:30:39.502Z,4.03
2018-12-11T09:33:07.855Z,9.90
2018-12-11T09:35:36.640Z,3.10
2018-12-11T09:38:05.022Z,3.13
2018-12-11T09:40:33.391Z,11.97
2018-12-11T09:43:02.084Z,2.37
2018-12-11T09:45:30.435Z,4.27
2018-12-11T09:47:58.805Z,5.43
2018-12-11T09:50:27.169Z,2.40
2018-12-11T09:52:55.570Z,2.43
2018-12-11T09:55:23.982Z,1.93
2018-12-11T09:57:52.659Z,4.83
2018-12-11T10:00:25.763Z,1.90
2018-12-11T10:02:51.449Z,4.53
2018-12-11T10:05:20.158Z,7.00
2018-12-11T10:07:48.890Z,10.10
2018-12-11T10:10:17.516Z,1.43
2018-12-11T10:12:46.305Z,8.00
2018-12-11T10:15:14.817Z,4.70
2018-12-11T10:17:43.258Z,3.47
2018-12-11T10:20:12.201Z,2.70
2018-12-11T10:22:40.920Z,3.00
2018-12-11T10:25:09.483Z,2.13
2018-12-11T10:27:37.808Z,2.37
2018-12-11T10:30:08.938Z,1.77
2018-12-11T10:32:37.418Z,2.80
2018-12-11T10:35:06.500Z,1.50
2018-12-11T10:37:35.113Z,3.43
2018-12-11T10:40:05.295Z,1.73
2018-12-11T10:42:33.808Z,4.60
2018-12-11T10:45:02.238Z,1.57
2018-12-11T10:47:31.296Z,1.40
2018-12-11T10:49:59.974Z,7.07
2018-12-11T10:52:28.475Z,2.43
2018-12-11T10:54:57.163Z,4.43
2018-12-11T10:57:25.660Z,5.00
2018-12-11T10:59:54.756Z,2.37
2018-12-11T11:02:23.401Z,1.73
2018-12-11T11:04:51.835Z,2.20
2018-12-11T11:07:20.350Z,2.40
2018-12-11T11:09:48.935Z,3.03
2018-12-11T11:12:17.445Z,3.80
2018-12-11T11:14:47.325Z,8.20
2018-12-11T11:17:17.513Z,2.47
2018-12-11T11:19:47.727Z,3.30
2018-12-11T11:22:16.410Z,2.60
2018-12-11T11:24:45.058Z,2.10
2018-12-11T11:27:14.732Z,5.93
2018-12-11T11:29:44.486Z,3.40
2018-12-11T11:32:14.688Z,4.20
2018-12-11T11:34:45.704Z,4.20
2018-12-11T11:37:14.509Z,6.57
2018-12-11T11:39:43.410Z,6.33
2018-12-11T11:42:11.787Z,2.57
2018-12-11T11:44:42.028Z,4.27
2018-12-11T11:47:11.830Z,3.90
2018-12-11T11:49:40.289Z,2.93
2018-12-11T11:52:08.699Z,2.03
2018-12-11T11:54:37.408Z,3.47
2018-12-11T11:57:05.839Z,4.77
2018-12-11T11:59:34.935Z,1.60
2018-12-11T12:02:03.934Z,1.43
2018-12-11T12:04:34.253Z,3.47
2018-12-11T12:07:04.132Z,5.00
2018-12-11T12:09:33.387Z,2.30
2018-12-11T12:12:01.875Z,3.00
2018-12-11T12:14:31.448Z,1.50
2018-12-11T12:17:00.641Z,2.90
2018-12-11T12:19:30.112Z,1.90
2018-12-11T12:21:59.217Z,2.73
2018-12-11T12:24:27.587Z,2.80
2018-12-11T12:26:55.998Z,4.00
2018-12-11T12:29:24.411Z,1.80
2018-12-11T12:31:53.142Z,2.77
2018-12-11T12:34:22.167Z,3.90
2018-12-11T12:36:50.832Z,2.53
2018-12-11T12:39:21.727Z,2.67
2018-12-11T12:41:51.239Z,5.53
2018-12-11T12:44:20.750Z,5.20
2018-12-11T12:46:49.980Z,7.13
2018-12-11T12:49:18.439Z,4.20
2018-12-11T12:51:47.134Z,2.67
2018-12-11T12:54:16.668Z,3.13
2018-12-11T12:56:51.334Z,4.70
2018-12-11T12:59:21.725Z,5.50
2018-12-11T13:01:50.397Z,4.40
2018-12-11T13:04:18.794Z,3.90
2018-12-11T13:06:47.223Z,4.33
2018-12-11T13:09:15.965Z,2.00
2018-12-11T13:11:44.633Z,2.10
2018-12-11T13:14:13.133Z,3.00
2018-12-11T13:16:41.808Z,7.83
2018-12-11T13:19:10.795Z,3.70
2018-12-11T13:21:39.598Z,9.60
2018-12-11T13:24:08.137Z,2.70
2018-12-11T13:26:36.533Z,3.30
2018-12-11T13:29:04.997Z,2.23
2018-12-11T13:31:33.709Z,3.00
2018-12-11T13:34:02.149Z,5.17
2018-12-11T13:36:32.291Z,2.43
2018-12-11T13:39:01.075Z,2.37
2018-12-11T13:41:29.787Z,3.80
2018-12-11T13:43:58.569Z,2.20
2018-12-11T13:46:27.279Z,3.53
2018-12-11T13:48:55.913Z,3.30
2018-12-11T13:51:24.541Z,3.60
2018-12-11T13:53:52.997Z,3.60
2018-12-11T13:56:21.356Z,6.33
2018-12-11T13:58:49.732Z,5.80
2018-12-11T14:01:18.245Z,4.40
2018-12-11T14:03:46.622Z,6.17
2018-12-11T14:06:15.019Z,4.13
2018-12-11T14:08:43.393Z,6.10
2018-12-11T14:11:11.823Z,7.13
2018-12-11T14:13:40.238Z,7.80
2018-12-11T14:16:08.660Z,3.87
2018-12-11T14:18:37.667Z,2.70
2018-12-11T14:21:06.202Z,4.57
2018-12-11T14:23:34.892Z,3.03
2018-12-11T14:26:03.301Z,4.10
2018-12-11T14:28:31.967Z,2.23
2018-12-11T14:31:00.346Z,4.00
2018-12-11T14:33:28.717Z,10.40
2018-12-11T14:35:57.405Z,5.67
2018-12-11T14:38:25.790Z,6.30
2018-12-11T14:40:54.246Z,5.73
2018-12-11T14:43:22.638Z,4.50
2018-12-11T14:45:51.325Z,7.50
2018-12-11T14:48:19.759Z,2.70
2018-12-11T14:50:48.140Z,5.33
2018-12-11T14:53:16.497Z,5.57
2018-12-11T14:55:44.912Z,4.43
2018-12-11T14:58:13.377Z,3.90
2018-12-11T15:00:41.784Z,5.03
2018-12-11T15:03:10.149Z,3.77
2018-12-11T15:05:38.594Z,9.60
2018-12-11T15:08:07.046Z,3.70
2018-12-11T15:10:35.446Z,2.53
2018-12-11T15:13:03.858Z,2.90
2018-12-11T15:15:32.485Z,4.53
2018-12-11T15:18:00.947Z,4.70
2018-12-11T15:20:29.381Z,3.00
2018-12-11T15:22:57.721Z,3.23
2018-12-11T15:25:26.130Z,2.83
2018-12-11T15:27:54.690Z,2.23
2018-12-11T15:30:23.265Z,2.73
2018-12-11T15:32:51.950Z,4.90
2018-12-11T15:35:20.312Z,2.93
2018-12-11T15:37:48.794Z,5.27
2018-12-11T15:40:17.189Z,4.73
2018-12-11T15:42:45.595Z,4.00
2018-12-11T15:45:13.924Z,2.20
2018-12-11T15:47:42.511Z,5.90
2018-12-11T15:50:10.905Z,2.50
2018-12-11T15:52:39.300Z,2.27
2018-12-11T15:55:08.167Z,2.60
2018-12-11T15:57:36.539Z,2.40
2018-12-11T16:00:07.954Z,2.20
2018-12-11T16:02:36.349Z,5.63
2018-12-11T16:05:05.059Z,4.37
2018-12-11T16:07:33.444Z,2.37
2018-12-11T16:10:01.832Z,3.40
2018-12-11T16:12:30.230Z,2.93
2018-12-11T16:14:58.623Z,3.97
2018-12-11T16:17:27.030Z,2.77
2018-12-11T16:19:55.762Z,3.53
2018-12-11T16:22:24.226Z,1.70
2018-12-11T16:24:53.116Z,2.70
2018-12-11T16:27:23.408Z,6.80
2018-12-11T16:29:52.015Z,1.87
2018-12-11T16:32:20.491Z,3.50
2018-12-11T16:34:48.880Z,1.97
2018-12-11T16:37:17.887Z,2.30
2018-12-11T16:39:46.261Z,2.13
2018-12-11T16:42:14.714Z,2.13
2018-12-11T16:44:43.099Z,2.27
2018-12-11T16:47:11.609Z,5.00
2018-12-11T16:49:40.134Z,1.70
2018-12-11T16:52:11.154Z,3.10
2018-12-11T16:54:39.639Z,2.43
2018-12-11T16:57:09.949Z,2.53
2018-12-11T16:59:40.480Z,3.17
2018-12-11T17:02:09.249Z,2.40
2018-12-11T17:04:37.766Z,2.83
2018-12-11T17:07:07.079Z,2.20
2018-12-11T17:09:37.847Z,3.60
2018-12-11T17:12:06.801Z,2.53
2018-12-11T17:14:35.374Z,6.30
2018-12-11T17:17:05.054Z,3.40
2018-12-11T17:19:35.874Z,2.90
2018-12-11T17:22:04.549Z,2.20
2018-12-11T17:24:33.920Z,2.87
2018-12-11T17:27:02.858Z,2.00
2018-12-11T17:29:42.587Z,3.03
2018-12-11T17:32:23.909Z,1.70
2018-12-11T17:34:54.918Z,2.20
2018-12-11T17:37:24.746Z,5.73
2018-12-11T17:39:55.746Z,2.00
2018-12-11T17:42:25.998Z,2.40
2018-12-11T17:44:54.763Z,2.10
2018-12-11T17:47:23.436Z,2.23
2018-12-11T17:49:52.172Z,1.93
2018-12-11T17:52:20.900Z,3.37
2018-12-11T17:54:49.358Z,4.23
2018-12-11T17:57:17.907Z,1.60
2018-12-11T17:59:46.485Z,2.23
2018-12-11T18:02:16.809Z,1.77
2018-12-11T18:04:45.603Z,2.93
2018-12-11T18:07:14.017Z,2.00
2018-12-11T18:09:42.628Z,7.70
2018-12-11T18:12:11.346Z,2.27
2018-12-11T18:14:39.736Z,2.53
2018-12-11T18:17:08.376Z,2.30
2018-12-11T18:19:36.993Z,2.90
2018-12-11T18:22:05.634Z,2.87
2018-12-11T18:24:34.091Z,2.40
2018-12-11T18:27:02.630Z,3.33
2018-12-11T18:29:31.216Z,2.70
2018-12-11T18:32:00.129Z,3.20
2018-12-11T18:34:29.049Z,2.77
2018-12-11T18:36:57.519Z,3.10
2018-12-11T18:39:26.834Z,2.80
2018-12-11T18:41:55.438Z,3.40
2018-12-11T18:44:24.711Z,3.37
2018-12-11T18:46:53.417Z,3.10
2018-12-11T18:49:22.018Z,3.73
2018-12-11T18:51:50.645Z,3.43
2018-12-11T18:54:19.490Z,2.63
2018-12-11T18:56:48.159Z,4.70
2018-12-11T18:59:17.543Z,3.97
2018-12-11T19:01:46.481Z,4.40
2018-12-11T19:04:15.022Z,3.33
2018-12-11T19:06:43.781Z,5.13
2018-12-11T19:09:12.165Z,5.10
2018-12-11T19:11:40.939Z,4.57
2018-12-11T19:14:09.400Z,2.60
2018-12-11T19:16:37.813Z,3.70
2018-12-11T19:19:06.683Z,3.30
2018-12-11T19:21:35.286Z,2.40
2018-12-11T19:24:04.895Z,4.67
2018-12-11T19:26:33.287Z,3.20
2018-12-11T19:29:02.319Z,4.53
2018-12-11T19:31:31.144Z,3.03
2018-12-11T19:33:59.685Z,4.10
2018-12-11T19:36:28.170Z,3.27
2018-12-11T19:38:56.832Z,3.00
2018-12-11T19:41:25.656Z,3.40
2018-12-11T19:43:54.066Z,3.00
2018-12-11T19:46:22.732Z,3.70
2018-12-11T19:48:51.339Z,2.57
2018-12-11T19:51:19.863Z,2.57
2018-12-11T19:53:48.377Z,18.20
2018-12-11T19:56:17.140Z,2.90
2018-12-11T19:58:45.929Z,4.57
2018-12-11T20:01:14.647Z,2.30
2018-12-11T20:03:43.254Z,2.00
2018-12-11T20:06:11.739Z,3.10
2018-12-11T20:08:40.796Z,2.40
2018-12-11T20:11:09.677Z,2.00
2018-12-11T20:13:38.452Z,2.40
2018-12-11T20:16:07.611Z,3.00
2018-12-11T20:18:36.131Z,2.73
2018-12-11T20:21:04.640Z,5.17
2018-12-11T20:23:33.115Z,2.57
2018-12-11T20:26:01.553Z,3.47
2018-12-11T20:28:29.971Z,2.63
2018-12-11T20:30:58.413Z,2.40
2018-12-11T20:33:26.954Z,4.00
2018-12-11T20:35:55.245Z,3.20
2018-12-11T20:38:23.838Z,4.93
2018-12-11T20:40:52.381Z,2.30
2018-12-11T20:43:20.867Z,1.90
2018-12-11T20:45:49.959Z,3.57
2018-12-11T20:48:20.473Z,3.63
2018-12-11T20:50:49.309Z,2.17
2018-12-11T20:53:18.877Z,3.53
2018-12-11T20:55:47.695Z,2.70
2018-12-11T20:58:16.147Z,1.70
2018-12-11T21:00:44.649Z,2.70
2018-12-11T21:03:13.081Z,2.53
2018-12-11T21:05:41.886Z,1.87
2018-12-11T21:08:10.716Z,2.50
2018-12-11T21:10:40.156Z,1.63
2018-12-11T21:13:08.847Z,3.13
2018-12-11T21:15:37.590Z,1.60
2018-12-11T21:18:06.272Z,1.67
2018-12-11T21:20:34.704Z,2.30
2018-12-11T21:23:03.335Z,2.10
2018-12-11T21:25:32.309Z,1.83
2018-12-11T21:28:00.887Z,3.00
2018-12-11T21:30:29.514Z,4.90
2018-12-11T21:32:58.202Z,1.77
2018-12-11T21:35:27.153Z,3.77
2018-12-11T21:37:56.209Z,2.40
2018-12-11T21:40:24.930Z,2.47
2018-12-11T21:42:53.467Z,3.03
2018-12-11T21:45:22.015Z,4.70
2018-12-11T21:47:50.810Z,3.40
2018-12-11T21:50:19.682Z,1.80
2018-12-11T21:52:48.018Z,1.77
2018-12-11T21:55:16.940Z,1.70
2018-12-11T21:57:45.639Z,3.47
2018-12-11T22:00:14.604Z,2.80
2018-12-11T22:02:43.919Z,1.90
2018-12-11T22:05:13.439Z,4.50
2018-12-11T22:07:41.937Z,2.10
2018-12-11T22:10:10.660Z,1.67
2018-12-11T22:12:39.351Z,1.70
2018-12-11T22:15:07.860Z,1.60
2018-12-11T22:17:36.280Z,1.93
2018-12-11T22:20:05.500Z,2.23
2018-12-11T22:22:33.943Z,1.63
2018-12-11T22:25:02.431Z,1.67
2018-12-11T22:27:30.821Z,1.93
2018-12-11T22:29:59.251Z,1.63
2018-12-11T22:32:27.729Z,2.10
2018-12-11T22:34:56.164Z,2.73
2018-12-11T22:37:24.954Z,1.60
2018-12-11T22:39:53.414Z,1.60
2018-12-11T22:42:21.861Z,1.80
2018-12-11T22:44:50.325Z,1.50
2018-12-11T22:47:18.808Z,1.70
2018-12-11T22:49:47.372Z,1.30
2018-12-11T22:52:15.977Z,1.67
2018-12-11T22:54:44.487Z,1.37
2018-12-11T22:57:13.011Z,1.40
2018-12-11T22:59:41.604Z,1.50
2018-12-11T23:02:11.178Z,1.50
2018-12-11T23:04:39.730Z,1.37
2018-12-11T23:07:08.216Z,1.60
2018-12-11T23:09:36.815Z,1.30
2018-12-11T23:12:05.968Z,1.20
2018-12-11T23:14:34.458Z,1.90
2018-12-11T23:17:02.963Z,1.20
2018-12-11T23:19:31.428Z,1.10
2018-12-11T23:21:59.803Z,2.00
2018-12-11T23:24:28.289Z,1.20
2018-12-11T23:26:57.738Z,1.47
2018-12-11T23:29:26.452Z,1.20
2018-12-11T23:31:54.929Z,1.20
2018-12-11T23:34:23.386Z,1.10
2018-12-11T23:36:52.127Z,1.00
2018-12-11T23:39:20.721Z,1.00
2018-12-11T23:41:50.535Z,1.10
2018-12-11T23:44:19.030Z,1.37
2018-12-11T23:46:47.725Z,1.03
2018-12-11T23:49:16.259Z,1.30
2018-12-11T23:51:44.842Z,1.13
2018-12-11T23:54:13.610Z,1.00
2018-12-11T23:56:42.169Z,1.10
2018-12-11T23:59:10.616Z,1.73
